createdAt,value
2022-10-09T00:20:07.427Z,84.13
2022-10-09T00:48:35.223Z,85.4
2022-10-09T01:17:20.367Z,85.05
2022-10-09T01:47:20.945Z,84.07
2022-10-09T02:52:15.163Z,84.92
2022-10-09T03:49:31.528Z,87.21
2022-10-09T04:21:23.505Z,86.97
2022-10-09T04:49:43.394Z,86.64
2022-10-09T05:18:21.993Z,87.51
2022-10-09T05:47:03.229Z,89.52
2022-10-09T06:15:42.916Z,88.26
2022-10-09T06:44:23.618Z,87.3
2022-10-09T07:13:09.219Z,86.85
2022-10-09T07:41:44.145Z,85.57
2022-10-09T08:10:09.913Z,83.99
2022-10-09T08:38:53.535Z,80.06
2022-10-09T09:07:39.567Z,81.61
2022-10-09T09:36:19.965Z,78.5
2022-10-09T10:04:48.209Z,74.76
2022-10-09T10:33:20.144Z,70.87
2022-10-09T11:01:49.304Z,67.52
2022-10-09T11:30:06.540Z,63.4
2022-10-09T11:58:29.921Z,60.61
2022-10-09T12:27:16.419Z,57.14
2022-10-09T12:55:52.756Z,55.97
2022-10-09T13:24:37.433Z,51.8
2022-10-09T13:53:22.248Z,52.58
2022-10-09T14:21:41.868Z,52.48
2022-10-09T15:47:52.179Z,54.08
2022-10-09T16:15:43.181Z,55.57
2022-10-09T16:44:11.543Z,60.63
2022-10-09T17:12:22.013Z,65.19
2022-10-09T17:40:37.663Z,67.2
2022-10-09T18:08:59.118Z,69.79
2022-10-09T18:37:16.043Z,73.4
2022-10-09T19:05:38.775Z,74.02
2022-10-09T19:34:07.758Z,74.42
2022-10-09T20:02:39.992Z,74.92
2022-10-09T20:31:11.682Z,76.3
2022-10-09T21:00:41.934Z,77.85
2022-10-09T21:58:45.492Z,81.69
2022-10-09T22:26:56.601Z,83.12
2022-10-09T22:55:40.403Z,83.45
2022-10-09T23:24:18.290Z,83.58
2022-10-09T23:53:05.992Z,83.69
